createdAt,value
2023-01-26T00:01:17.047Z,21.50
2023-01-26T00:03:45.441Z,21.50
2023-01-26T00:06:15.470Z,21.50
2023-01-26T00:08:46.111Z,21.50
2023-01-26T00:11:15.287Z,21.50
2023-01-26T00:13:43.004Z,21.50
2023-01-26T00:16:12.984Z,21.50
2023-01-26T00:18:41.751Z,21.50
2023-01-26T00:21:12.621Z,21.50
2023-01-26T00:23:40.345Z,21.50
2023-01-26T00:26:11.876Z,21.50
2023-01-26T00:28:40.506Z,21.50
2023-01-26T00:31:09.918Z,21.50
2023-01-26T00:33:37.702Z,21.50
2023-01-26T00:36:05.998Z,21.50
2023-01-26T00:38:33.858Z,21.50
2023-01-26T00:41:02.617Z,21.50
2023-01-26T00:43:31.671Z,21.50
2023-01-26T00:45:59.405Z,21.50
2023-01-26T00:48:27.138Z,21.50
2023-01-26T00:50:55.059Z,21.50
2023-01-26T00:53:22.781Z,21.50
2023-01-26T00:55:50.505Z,21.50
2023-01-26T00:58:18.206Z,21.50
2023-01-26T01:00:47.265Z,21.50
2023-01-26T01:03:14.982Z,21.50
2023-01-26T01:05:42.706Z,21.50
2023-01-26T01:08:13.469Z,21.50
2023-01-26T01:10:41.183Z,21.50
2023-01-26T01:13:08.885Z,21.50
2023-01-26T01:15:38.875Z,21.50
2023-01-26T01:18:08.147Z,21.50
2023-01-26T01:20:35.854Z,21.50
2023-01-26T01:23:03.555Z,21.50
2023-01-26T01:25:31.543Z,21.50
2023-01-26T01:27:59.248Z,21.50
2023-01-26T01:30:26.942Z,21.50
2023-01-26T01:32:54.649Z,21.60
2023-01-26T01:35:23.905Z,21.60
2023-01-26T01:37:51.679Z,21.50
2023-01-26T01:40:19.525Z,21.50
2023-01-26T01:42:48.245Z,21.50
2023-01-26T01:45:41.759Z,21.50
2023-01-26T01:48:16.033Z,21.50
2023-01-26T01:50:45.340Z,21.50
2023-01-26T01:53:18.946Z,21.50
2023-01-26T01:55:47.537Z,21.50
2023-01-26T01:58:16.014Z,21.50
2023-01-26T02:00:43.824Z,21.50
2023-01-26T02:03:15.556Z,21.50
2023-01-26T02:05:52.975Z,21.50
2023-01-26T02:08:25.003Z,21.50
2023-01-26T02:10:55.937Z,21.50
2023-01-26T02:13:25.576Z,21.50
2023-01-26T02:15:53.467Z,21.50
2023-01-26T02:18:21.429Z,21.50
2023-01-26T02:20:52.730Z,21.50
2023-01-26T02:23:36.576Z,21.50
2023-01-26T02:26:08.736Z,21.50
2023-01-26T02:28:36.460Z,21.50
2023-01-26T02:31:05.070Z,21.50
2023-01-26T02:33:34.377Z,21.50
2023-01-26T02:36:05.873Z,21.50
2023-01-26T02:38:41.257Z,21.50
2023-01-26T02:41:14.048Z,21.50
2023-01-26T02:43:40.931Z,21.50
2023-01-26T02:46:08.707Z,21.50
2023-01-26T02:48:56.958Z,21.50
2023-01-26T02:51:24.824Z,21.50
2023-01-26T02:53:53.044Z,21.50
2023-01-26T02:56:21.179Z,21.50
2023-01-26T02:58:49.048Z,21.50
2023-01-26T03:01:16.783Z,21.50
2023-01-26T03:03:50.641Z,21.50
2023-01-26T03:06:20.995Z,21.50
2023-01-26T03:08:48.688Z,21.50
2023-01-26T03:11:16.412Z,21.50
2023-01-26T03:13:45.422Z,21.50
2023-01-26T03:16:15.708Z,21.50
2023-01-26T03:19:01.004Z,21.50
2023-01-26T03:21:46.215Z,21.50
2023-01-26T03:24:32.951Z,21.50
2023-01-26T03:27:20.662Z,21.50
2023-01-26T03:29:49.788Z,21.50
2023-01-26T03:32:17.503Z,21.50
2023-01-26T03:34:45.482Z,21.50
2023-01-26T03:37:13.456Z,21.50
2023-01-26T03:40:16.432Z,21.50
2023-01-26T03:43:01.866Z,21.50
2023-01-26T03:45:49.231Z,21.50
2023-01-26T03:48:34.706Z,21.50
2023-01-26T03:51:23.625Z,21.50
2023-01-26T03:54:08.972Z,21.50
2023-01-26T03:56:36.824Z,21.50
2023-01-26T03:59:15.357Z,21.50
2023-01-26T04:02:05.239Z,21.50
2023-01-26T04:04:51.664Z,21.50
2023-01-26T04:07:39.619Z,21.50
2023-01-26T04:10:08.269Z,21.50
2023-01-26T04:12:36.105Z,21.50
2023-01-26T04:15:31.547Z,21.50
2023-01-26T04:18:24.617Z,21.50
2023-01-26T04:21:10.306Z,21.50
2023-01-26T04:23:39.718Z,21.50
2023-01-26T04:26:07.888Z,21.50
2023-01-26T04:28:35.945Z,21.50
2023-01-26T04:31:04.570Z,21.50
2023-01-26T04:33:37.220Z,21.50
2023-01-26T04:36:06.414Z,21.50
2023-01-26T04:38:36.157Z,21.50
2023-01-26T04:41:03.972Z,21.50
2023-01-26T04:43:37.297Z,21.50
2023-01-26T04:46:08.366Z,21.50
2023-01-26T04:48:39.275Z,21.50
2023-01-26T04:51:08.794Z,21.50
2023-01-26T04:53:36.788Z,21.50
2023-01-26T04:56:04.857Z,21.50
2023-01-26T04:58:33.987Z,21.50
2023-01-26T05:01:02.343Z,21.50
2023-01-26T05:03:30.585Z,21.50
2023-01-26T05:05:59.805Z,21.50
2023-01-26T05:08:27.551Z,21.50
2023-01-26T05:10:55.403Z,21.50
2023-01-26T05:13:26.473Z,21.50
2023-01-26T05:16:13.829Z,21.50
2023-01-26T05:18:55.833Z,21.50
2023-01-26T05:21:46.296Z,21.50
2023-01-26T05:24:14.567Z,21.50
2023-01-26T05:27:14.694Z,21.50
2023-01-26T05:29:42.795Z,21.50
2023-01-26T05:32:10.786Z,21.50
2023-01-26T05:34:39.112Z,21.50
2023-01-26T05:37:08.632Z,21.50
2023-01-26T05:39:37.375Z,21.50
2023-01-26T05:42:06.954Z,21.50
2023-01-26T05:45:03.575Z,21.50
2023-01-26T05:47:31.449Z,21.50
2023-01-26T05:49:59.172Z,21.50
2023-01-26T05:52:33.076Z,21.50
2023-01-26T05:55:00.967Z,21.50
2023-01-26T05:57:28.998Z,21.50
2023-01-26T06:00:05.932Z,21.50
2023-01-26T06:02:42.121Z,21.50
2023-01-26T06:05:13.618Z,21.50
2023-01-26T06:07:45.277Z,21.50
2023-01-26T06:10:18.672Z,21.50
2023-01-26T06:12:59.306Z,21.50
2023-01-26T06:15:42.401Z,21.50
2023-01-26T06:18:10.597Z,21.50
2023-01-26T06:20:43.396Z,21.50
2023-01-26T06:23:13.809Z,21.50
2023-01-26T06:25:41.735Z,21.50
2023-01-26T06:28:09.420Z,21.50
2023-01-26T06:30:38.007Z,21.50
2023-01-26T06:33:09.444Z,21.50
2023-01-26T06:35:38.755Z,21.40
2023-01-26T06:38:15.217Z,21.50
2023-01-26T06:40:42.990Z,21.40
2023-01-26T06:43:10.707Z,21.40
2023-01-26T06:45:38.959Z,21.40
2023-01-26T06:48:06.855Z,21.40
2023-01-26T06:50:36.543Z,21.40
2023-01-26T06:53:25.506Z,21.30
2023-01-26T06:56:08.169Z,21.30
2023-01-26T06:58:48.172Z,21.30
2023-01-26T07:01:37.620Z,21.30
2023-01-26T07:04:05.589Z,21.30
2023-01-26T07:06:33.303Z,21.30
2023-01-26T07:09:01.035Z,21.30
2023-01-26T07:11:32.319Z,21.30
2023-01-26T07:14:00.473Z,21.30
2023-01-26T07:16:28.505Z,21.30
2023-01-26T07:18:56.964Z,21.30
2023-01-26T07:21:24.890Z,21.30
2023-01-26T07:23:53.202Z,21.30
2023-01-26T07:26:21.240Z,21.40
2023-01-26T07:28:50.257Z,21.40
2023-01-26T07:31:18.280Z,21.40
2023-01-26T07:33:46.100Z,21.40
2023-01-26T07:36:13.802Z,21.40
2023-01-26T07:38:41.666Z,21.40
2023-01-26T07:41:12.967Z,21.40
2023-01-26T07:43:41.943Z,21.40
2023-01-26T07:46:11.845Z,21.40
2023-01-26T07:48:40.762Z,21.40
2023-01-26T07:51:10.936Z,21.40
2023-01-26T07:53:39.517Z,21.40
2023-01-26T07:56:12.606Z,21.50
2023-01-26T07:58:41.007Z,21.50
2023-01-26T08:01:12.381Z,21.50
2023-01-26T08:03:40.306Z,21.50
2023-01-26T08:06:12.033Z,21.50
2023-01-26T08:08:42.796Z,21.50
2023-01-26T08:11:12.201Z,21.50
2023-01-26T08:13:40.011Z,21.50
2023-01-26T08:16:12.346Z,21.50
2023-01-26T08:18:40.636Z,21.50
2023-01-26T08:21:08.360Z,21.50
2023-01-26T08:23:36.308Z,21.50
2023-01-26T08:26:05.699Z,21.50
2023-01-26T08:28:34.248Z,21.50
2023-01-26T08:31:05.456Z,21.50
2023-01-26T08:33:35.292Z,21.50
2023-01-26T08:36:03.664Z,21.50
2023-01-26T08:38:32.340Z,21.60
2023-01-26T08:41:00.306Z,21.60
2023-01-26T08:43:28.357Z,21.60
2023-01-26T08:45:56.686Z,21.60
2023-01-26T08:48:24.427Z,21.60
2023-01-26T08:50:56.951Z,21.60
2023-01-26T08:53:25.051Z,21.60
2023-01-26T08:55:53.037Z,21.60
2023-01-26T08:58:21.345Z,21.60
2023-01-26T09:00:49.187Z,21.60
2023-01-26T09:03:16.992Z,21.60
2023-01-26T09:05:44.798Z,21.60
2023-01-26T09:08:13.826Z,21.60
2023-01-26T09:10:42.795Z,21.60
2023-01-26T09:13:10.857Z,21.60
2023-01-26T09:15:39.160Z,21.60
2023-01-26T09:18:07.136Z,21.60
2023-01-26T09:20:34.868Z,21.60
2023-01-26T09:23:02.557Z,21.60
2023-01-26T09:25:31.707Z,21.60
2023-01-26T09:27:59.390Z,21.60
2023-01-26T09:30:27.210Z,21.60
2023-01-26T09:32:59.276Z,21.60
2023-01-26T09:35:27.023Z,21.60
2023-01-26T09:37:54.994Z,21.60
2023-01-26T09:40:31.920Z,21.60
2023-01-26T09:43:10.535Z,21.60
2023-01-26T09:45:45.425Z,21.60
2023-01-26T09:48:24.999Z,21.60
2023-01-26T09:50:58.204Z,21.60
2023-01-26T09:53:29.740Z,21.60
2023-01-26T09:55:57.558Z,21.60
2023-01-26T09:58:35.579Z,21.60
2023-01-26T10:01:04.388Z,21.60
2023-01-26T10:03:40.346Z,21.60
2023-01-26T10:06:17.233Z,21.60
2023-01-26T10:09:07.108Z,21.60
2023-01-26T10:11:39.849Z,21.60
2023-01-26T10:14:15.139Z,21.60
2023-01-26T10:16:45.861Z,21.60
2023-01-26T10:19:20.429Z,21.60
2023-01-26T10:21:51.430Z,21.60
2023-01-26T10:24:23.415Z,21.60
2023-01-26T10:26:53.072Z,21.60
2023-01-26T10:29:23.174Z,21.60
2023-01-26T10:31:51.040Z,21.60
2023-01-26T10:34:23.888Z,21.60
2023-01-26T10:36:51.586Z,21.60
2023-01-26T10:39:19.330Z,21.60
2023-01-26T10:42:01.601Z,21.60
2023-01-26T10:44:34.919Z,21.60
2023-01-26T10:47:16.478Z,21.60
2023-01-26T10:49:45.017Z,21.50
2023-01-26T10:52:18.341Z,21.50
2023-01-26T10:54:46.738Z,21.60
2023-01-26T10:57:19.411Z,21.60
2023-01-26T10:59:54.439Z,21.60
2023-01-26T11:02:27.024Z,21.50
2023-01-26T11:05:23.073Z,21.50
2023-01-26T11:07:54.139Z,21.50
2023-01-26T11:10:28.748Z,21.50
2023-01-26T11:13:18.033Z,21.50
2023-01-26T11:15:48.876Z,21.60
2023-01-26T11:18:28.036Z,21.60
2023-01-26T11:21:00.771Z,21.60
2023-01-26T11:23:46.986Z,21.60
2023-01-26T11:26:51.871Z,21.60
2023-01-26T11:29:47.259Z,21.40
2023-01-26T11:32:23.695Z,21.00
2023-01-26T11:35:00.926Z,20.70
2023-01-26T11:37:48.395Z,20.40
2023-01-26T11:40:27.120Z,20.30
2023-01-26T11:43:13.566Z,20.30
2023-01-26T11:46:04.215Z,20.40
2023-01-26T11:48:46.052Z,20.40
2023-01-26T11:51:22.228Z,20.60
2023-01-26T11:54:22.789Z,20.60
2023-01-26T11:56:54.377Z,20.70
2023-01-26T11:59:27.677Z,20.70
2023-01-26T12:02:00.785Z,20.80
2023-01-26T12:04:37.439Z,20.80
2023-01-26T12:07:11.733Z,20.90
2023-01-26T12:09:43.847Z,20.90
2023-01-26T12:12:15.409Z,21.00
2023-01-26T12:14:48.883Z,21.00
2023-01-26T12:17:30.744Z,21.00
2023-01-26T12:20:05.701Z,21.10
2023-01-26T12:22:36.423Z,21.10
2023-01-26T12:25:28.855Z,21.10
2023-01-26T12:28:02.897Z,21.10
2023-01-26T12:30:38.384Z,21.20
2023-01-26T12:33:06.293Z,21.20
2023-01-26T12:35:54.066Z,21.20
2023-01-26T12:38:29.731Z,21.20
2023-01-26T12:41:07.251Z,21.30
2023-01-26T12:43:46.739Z,21.30
2023-01-26T12:46:15.453Z,21.30
2023-01-26T12:48:47.732Z,21.30
2023-01-26T12:51:24.604Z,21.30
2023-01-26T12:53:59.016Z,21.40
2023-01-26T12:56:32.431Z,21.40
2023-01-26T12:59:04.918Z,21.40
2023-01-26T13:01:40.670Z,21.40
2023-01-26T13:04:12.290Z,21.40
2023-01-26T13:06:41.652Z,21.50
2023-01-26T13:09:24.134Z,21.40
2023-01-26T13:11:54.612Z,21.50
2023-01-26T13:14:31.222Z,21.40
2023-01-26T13:17:20.050Z,21.50
2023-01-26T13:19:59.617Z,21.50
2023-01-26T13:22:42.515Z,21.50
2023-01-26T13:25:19.295Z,21.50
2023-01-26T13:27:55.404Z,21.60
2023-01-26T13:30:43.825Z,21.60
2023-01-26T13:33:19.632Z,21.60
2023-01-26T13:35:48.299Z,21.50
2023-01-26T13:38:21.176Z,21.60
2023-01-26T13:40:50.818Z,21.60
2023-01-26T13:43:32.759Z,21.60
2023-01-26T13:46:08.728Z,21.60
2023-01-26T13:48:43.740Z,21.60
2023-01-26T13:51:16.592Z,21.60
2023-01-26T13:53:55.806Z,21.60
2023-01-26T13:56:30.123Z,21.60
2023-01-26T13:59:11.197Z,21.60
2023-01-26T14:01:43.996Z,21.60
2023-01-26T14:04:15.760Z,21.60
2023-01-26T14:06:47.071Z,21.60
2023-01-26T14:09:16.443Z,21.60
2023-01-26T14:11:44.756Z,21.60
2023-01-26T14:14:23.583Z,21.70
2023-01-26T14:16:51.411Z,21.70
2023-01-26T14:19:21.601Z,21.70
2023-01-26T14:21:52.324Z,21.60
2023-01-26T14:24:27.753Z,21.60
2023-01-26T14:26:55.767Z,21.60
2023-01-26T14:29:26.040Z,21.60
2023-01-26T14:31:55.656Z,21.60
2023-01-26T14:34:25.304Z,21.60
2023-01-26T14:37:07.095Z,21.60
2023-01-26T14:39:36.162Z,21.60
2023-01-26T14:42:05.104Z,21.60
2023-01-26T14:44:32.972Z,21.50
2023-01-26T14:47:05.518Z,21.60
2023-01-26T14:49:42.917Z,21.50
2023-01-26T14:52:24.861Z,21.50
2023-01-26T14:54:55.217Z,21.50
2023-01-26T14:57:25.204Z,21.50
2023-01-26T14:59:55.948Z,21.50
2023-01-26T15:02:26.549Z,21.40
2023-01-26T15:04:58.535Z,21.50
2023-01-26T15:07:35.696Z,21.50
2023-01-26T15:10:26.081Z,21.50
2023-01-26T15:12:59.147Z,21.40
2023-01-26T15:15:29.875Z,21.50
2023-01-26T15:18:18.735Z,21.50
2023-01-26T15:21:00.009Z,21.40
2023-01-26T15:23:31.122Z,21.50
2023-01-26T15:26:07.751Z,21.40
2023-01-26T15:28:36.223Z,21.40
2023-01-26T15:31:04.591Z,21.50
2023-01-26T15:33:53.800Z,21.50
2023-01-26T15:36:26.948Z,21.50
2023-01-26T15:39:02.883Z,21.50
2023-01-26T15:41:32.388Z,21.50
2023-01-26T15:44:00.235Z,21.50
2023-01-26T15:46:28.166Z,21.50
2023-01-26T15:48:55.963Z,21.50
2023-01-26T15:51:23.784Z,21.50
2023-01-26T15:53:51.494Z,21.50
2023-01-26T15:56:19.239Z,21.50
2023-01-26T15:58:48.285Z,21.50
2023-01-26T16:01:19.906Z,21.50
2023-01-26T16:03:47.629Z,21.60
2023-01-26T16:06:22.547Z,21.60
2023-01-26T16:08:50.491Z,21.60
2023-01-26T16:11:19.031Z,21.60
2023-01-26T16:14:02.094Z,21.60
2023-01-26T16:16:30.655Z,21.50
2023-01-26T16:18:59.180Z,21.60
2023-01-26T16:21:31.213Z,21.50
2023-01-26T16:23:58.982Z,21.50
2023-01-26T16:26:28.288Z,21.50
2023-01-26T16:28:57.738Z,21.50
2023-01-26T16:31:28.860Z,21.50
2023-01-26T16:33:57.121Z,21.60
2023-01-26T16:36:25.041Z,21.60
2023-01-26T16:38:52.736Z,21.60
2023-01-26T16:41:25.626Z,21.60
2023-01-26T16:43:55.679Z,21.60
2023-01-26T16:46:25.099Z,21.60
2023-01-26T16:48:53.193Z,21.60
2023-01-26T16:51:24.921Z,21.60
2023-01-26T16:53:53.270Z,21.60
2023-01-26T16:56:21.483Z,21.60
2023-01-26T16:58:49.463Z,21.60
2023-01-26T17:01:20.252Z,21.60
2023-01-26T17:03:50.000Z,21.60
2023-01-26T17:06:19.878Z,21.60
2023-01-26T17:08:47.627Z,21.60
2023-01-26T17:11:20.948Z,21.60
2023-01-26T17:13:49.199Z,21.60
2023-01-26T17:16:19.240Z,21.60
2023-01-26T17:18:48.947Z,21.60
2023-01-26T17:21:18.531Z,21.60
2023-01-26T17:23:49.339Z,21.60
2023-01-26T17:26:18.327Z,21.60
2023-01-26T17:28:46.933Z,21.60
2023-01-26T17:31:18.670Z,21.60
2023-01-26T17:33:47.690Z,21.60
2023-01-26T17:36:17.583Z,21.50
2023-01-26T17:38:45.350Z,21.60
2023-01-26T17:41:13.045Z,21.60
2023-01-26T17:43:40.730Z,21.60
2023-01-26T17:46:11.036Z,21.60
2023-01-26T17:48:39.031Z,21.60
2023-01-26T17:51:07.947Z,21.60
2023-01-26T17:53:39.213Z,21.60
2023-01-26T17:56:08.570Z,21.60
2023-01-26T17:58:36.766Z,21.60
2023-01-26T18:01:04.809Z,21.60
2023-01-26T18:03:32.658Z,21.60
2023-01-26T18:06:00.537Z,21.60
2023-01-26T18:08:28.692Z,21.60
2023-01-26T18:11:01.446Z,21.60
2023-01-26T18:13:29.789Z,21.60
2023-01-26T18:15:57.589Z,21.60
2023-01-26T18:18:26.827Z,21.60
2023-01-26T18:20:54.537Z,21.60
2023-01-26T18:23:23.300Z,21.50
2023-01-26T18:25:51.746Z,21.50
2023-01-26T18:28:20.766Z,21.50
2023-01-26T18:30:48.792Z,21.60
2023-01-26T18:33:16.522Z,21.60
2023-01-26T18:35:44.259Z,21.60
2023-01-26T18:38:11.956Z,21.60
2023-01-26T18:40:40.446Z,21.60
2023-01-26T18:43:09.516Z,21.50
2023-01-26T18:45:41.827Z,21.60
2023-01-26T18:48:09.758Z,21.60
2023-01-26T18:50:38.353Z,21.60
2023-01-26T18:53:07.072Z,21.60
2023-01-26T18:55:34.830Z,21.60
2023-01-26T18:58:02.554Z,21.60
2023-01-26T19:00:30.471Z,21.60
2023-01-26T19:02:59.525Z,21.60
2023-01-26T19:05:27.561Z,21.60
2023-01-26T19:07:55.251Z,21.60
2023-01-26T19:10:23.086Z,21.60
2023-01-26T19:12:51.067Z,21.60
2023-01-26T19:15:18.807Z,21.60
2023-01-26T19:17:46.582Z,21.60
2023-01-26T19:20:15.797Z,21.60
2023-01-26T19:22:43.489Z,21.60
2023-01-26T19:25:11.575Z,21.60
2023-01-26T19:27:40.258Z,21.60
2023-01-26T19:30:09.223Z,21.60
2023-01-26T19:32:36.914Z,21.60
2023-01-26T19:35:04.853Z,21.60
2023-01-26T19:37:33.895Z,21.60
2023-01-26T19:40:01.608Z,21.60
2023-01-26T19:42:29.340Z,21.60
2023-01-26T19:44:57.041Z,21.60
2023-01-26T19:47:24.949Z,21.60
2023-01-26T19:49:52.646Z,21.60
2023-01-26T19:52:20.336Z,21.60
2023-01-26T19:54:49.372Z,21.70
2023-01-26T19:57:17.064Z,21.90
2023-01-26T19:59:44.769Z,22.00
2023-01-26T20:02:12.520Z,22.00
2023-01-26T20:04:40.289Z,22.00
2023-01-26T20:07:08.137Z,22.00
2023-01-26T20:09:37.173Z,22.00
2023-01-26T20:12:07.140Z,21.90
2023-01-26T20:14:34.838Z,21.90
2023-01-26T20:17:02.623Z,21.80
2023-01-26T20:19:31.763Z,21.80
2023-01-26T20:21:59.825Z,21.80
2023-01-26T20:24:27.746Z,21.80
2023-01-26T20:26:55.904Z,21.80
2023-01-26T20:29:25.082Z,21.80
2023-01-26T20:31:52.857Z,21.70
2023-01-26T20:34:21.856Z,21.80
2023-01-26T20:36:50.213Z,21.80
2023-01-26T20:39:24.895Z,21.70
2023-01-26T20:41:52.927Z,21.70
2023-01-26T20:44:21.005Z,21.70
2023-01-26T20:46:50.468Z,21.70
2023-01-26T20:49:19.588Z,21.70
2023-01-26T20:51:47.425Z,21.70
2023-01-26T20:54:16.917Z,21.70
2023-01-26T20:56:46.491Z,21.60
2023-01-26T20:59:14.183Z,21.70
2023-01-26T21:01:41.873Z,21.60
2023-01-26T21:04:11.109Z,21.60
2023-01-26T21:06:39.562Z,21.60
2023-01-26T21:09:07.281Z,21.60
2023-01-26T21:11:35.773Z,21.70
2023-01-26T21:14:03.492Z,21.60
2023-01-26T21:16:32.405Z,21.60
2023-01-26T21:19:00.702Z,21.60
2023-01-26T21:21:29.771Z,21.60
2023-01-26T21:23:57.479Z,21.60
2023-01-26T21:26:27.595Z,21.60
2023-01-26T21:28:57.946Z,21.60
2023-01-26T21:31:27.220Z,21.60
2023-01-26T21:33:55.849Z,21.60
2023-01-26T21:36:25.248Z,21.60
2023-01-26T21:38:56.781Z,21.60
2023-01-26T21:41:43.477Z,21.60
2023-01-26T21:44:13.746Z,21.60
2023-01-26T21:46:41.506Z,21.60
2023-01-26T21:49:10.521Z,21.60
2023-01-26T21:51:55.794Z,21.60
2023-01-26T21:54:25.171Z,21.60
2023-01-26T21:56:53.032Z,21.60
2023-01-26T21:59:19.846Z,21.60
2023-01-26T22:01:49.892Z,21.60
2023-01-26T22:04:19.057Z,21.60
2023-01-26T22:06:46.826Z,21.60
2023-01-26T22:09:16.497Z,21.60
2023-01-26T22:11:45.708Z,21.60
2023-01-26T22:14:15.986Z,21.60
2023-01-26T22:16:44.324Z,21.60
2023-01-26T22:19:12.872Z,21.60
2023-01-26T22:21:40.929Z,21.60
2023-01-26T22:24:11.903Z,21.60
2023-01-26T22:26:40.039Z,21.60
2023-01-26T22:29:10.888Z,21.60
2023-01-26T22:31:38.704Z,21.60
2023-01-26T22:34:06.868Z,21.60
2023-01-26T22:36:34.600Z,21.60
2023-01-26T22:39:02.419Z,21.50
2023-01-26T22:41:30.997Z,21.50
2023-01-26T22:44:00.830Z,21.50
2023-01-26T22:46:31.573Z,21.50
2023-01-26T22:49:00.001Z,21.50
2023-01-26T22:51:30.251Z,21.50
2023-01-26T22:53:59.390Z,21.50
2023-01-26T22:56:27.718Z,21.50
2023-01-26T22:58:59.328Z,21.50
2023-01-26T23:01:31.093Z,21.50
2023-01-26T23:03:59.839Z,21.50
2023-01-26T23:06:28.094Z,21.50
2023-01-26T23:08:58.010Z,21.50
2023-01-26T23:11:27.308Z,21.50
2023-01-26T23:13:56.776Z,21.50
2023-01-26T23:16:25.984Z,21.50
2023-01-26T23:18:56.834Z,21.50
2023-01-26T23:21:25.589Z,21.50
2023-01-26T23:23:53.636Z,21.40
2023-01-26T23:26:22.154Z,21.50
2023-01-26T23:28:49.896Z,21.50
2023-01-26T23:31:18.712Z,21.50
2023-01-26T23:33:47.425Z,21.50
2023-01-26T23:36:17.054Z,21.50
2023-01-26T23:38:45.598Z,21.40
2023-01-26T23:41:13.379Z,21.50
2023-01-26T23:43:41.338Z,21.50
2023-01-26T23:46:09.965Z,21.40
2023-01-26T23:48:38.035Z,21.50
2023-01-26T23:51:08.344Z,21.50
2023-01-26T23:53:37.920Z,21.50
2023-01-26T23:56:08.404Z,21.50
2023-01-26T23:58:37.793Z,21.40
